sensor_id;sensor_type;location;lat;lon;timestamp;pressure;altitude;pressure_sealevel;temperature;humidity
29197;BME280;62796;42.654;23.316;2023-05-11T00:01:50;94765.91;;;11.43;56.47
29197;BME280;62796;42.654;23.316;2023-05-11T00:04:16;94765.31;;;11.39;56.89
29197;BME280;62796;42.654;23.316;2023-05-11T00:06:41;94766.03;;;11.34;56.85
29197;BME280;62796;42.654;23.316;2023-05-11T00:09:07;94772.25;;;11.29;56.74
29197;BME280;62796;42.654;23.316;2023-05-11T00:11:34;94774.19;;;11.23;56.94
29197;BME280;62796;42.654;23.316;2023-05-11T00:13:59;94765.72;;;11.12;57.27
29197;BME280;62796;42.654;23.316;2023-05-11T00:16:25;94770.44;;;11.06;57.55
29197;BME280;62796;42.654;23.316;2023-05-11T00:18:50;94779.31;;;11.10;57.30
29197;BME280;62796;42.654;23.316;2023-05-11T00:21:16;94778.47;;;11.04;57.38
29197;BME280;62796;42.654;23.316;2023-05-11T00:23:41;94780.97;;;11.02;57.65
29197;BME280;62796;42.654;23.316;2023-05-11T00:26:06;94786.22;;;11.00;57.65
29197;BME280;62796;42.654;23.316;2023-05-11T00:28:32;94780.41;;;10.98;57.73
29197;BME280;62796;42.654;23.316;2023-05-11T00:30:57;94781.09;;;10.93;57.88
29197;BME280;62796;42.654;23.316;2023-05-11T00:33:23;94782.25;;;10.86;57.98
29197;BME280;62796;42.654;23.316;2023-05-11T00:35:49;94785.09;;;10.92;57.83
29197;BME280;62796;42.654;23.316;2023-05-11T00:38:15;94779.16;;;10.84;58.39
29197;BME280;62796;42.654;23.316;2023-05-11T00:40:40;94787.50;;;10.84;58.17
29197;BME280;62796;42.654;23.316;2023-05-11T00:43:06;94785.78;;;10.87;58.21
29197;BME280;62796;42.654;23.316;2023-05-11T00:45:32;94791.03;;;10.85;58.37
29197;BME280;62796;42.654;23.316;2023-05-11T00:47:57;94791.31;;;10.87;58.00
29197;BME280;62796;42.654;23.316;2023-05-11T00:50:24;94795.53;;;10.82;58.36
29197;BME280;62796;42.654;23.316;2023-05-11T00:52:49;94789.22;;;10.82;58.24
29197;BME280;62796;42.654;23.316;2023-05-11T00:55:18;94789.03;;;10.85;58.27
29197;BME280;62796;42.654;23.316;2023-05-11T00:57:44;94791.22;;;10.81;58.50
29197;BME280;62796;42.654;23.316;2023-05-11T01:00:10;94790.47;;;10.81;58.42
29197;BME280;62796;42.654;23.316;2023-05-11T01:02:36;94792.69;;;10.77;58.73
29197;BME280;62796;42.654;23.316;2023-05-11T01:05:02;94795.44;;;10.77;58.83
29197;BME280;62796;42.654;23.316;2023-05-11T01:07:34;94797.25;;;10.80;58.48
29197;BME280;62796;42.654;23.316;2023-05-11T01:10:05;94799.19;;;10.74;58.83
29197;BME280;62796;42.654;23.316;2023-05-11T01:15:47;94787.16;;;10.62;58.82
29197;BME280;62796;42.654;23.316;2023-05-11T01:18:34;94793.47;;;10.63;59.10
29197;BME280;62796;42.654;23.316;2023-05-11T01:21:03;94793.66;;;10.59;59.19
29197;BME280;62796;42.654;23.316;2023-05-11T01:26:33;94783.53;;;10.56;58.99
29197;BME280;62796;42.654;23.316;2023-05-11T01:31:53;94796.81;;;10.52;58.55
29197;BME280;62796;42.654;23.316;2023-05-11T01:34:29;94791.94;;;10.47;58.94
29197;BME280;62796;42.654;23.316;2023-05-11T01:39:37;94792.53;;;10.51;59.11
29197;BME280;62796;42.654;23.316;2023-05-11T01:42:09;94786.03;;;10.54;58.62
29197;BME280;62796;42.654;23.316;2023-05-11T01:44:38;94786.50;;;10.52;58.40
29197;BME280;62796;42.654;23.316;2023-05-11T01:47:06;94794.22;;;10.48;58.34
29197;BME280;62796;42.654;23.316;2023-05-11T01:49:36;94790.22;;;10.49;58.42
29197;BME280;62796;42.654;23.316;2023-05-11T01:52:04;94785.38;;;10.44;58.20
29197;BME280;62796;42.654;23.316;2023-05-11T01:54:32;94788.69;;;10.48;58.12
29197;BME280;62796;42.654;23.316;2023-05-11T01:57:00;94786.59;;;10.43;58.14
29197;BME280;62796;42.654;23.316;2023-05-11T01:59:27;94788.50;;;10.37;58.43
29197;BME280;62796;42.654;23.316;2023-05-11T02:01:54;94784.50;;;10.38;58.29
29197;BME280;62796;42.654;23.316;2023-05-11T02:04:21;94785.28;;;10.39;57.95
29197;BME280;62796;42.654;23.316;2023-05-11T02:06:48;94787.56;;;10.40;57.93
29197;BME280;62796;42.654;23.316;2023-05-11T02:09:15;94771.91;;;10.37;57.72
29197;BME280;62796;42.654;23.316;2023-05-11T02:11:43;94789.19;;;10.32;57.81
29197;BME280;62796;42.654;23.316;2023-05-11T02:14:10;94776.47;;;10.40;57.81
29197;BME280;62796;42.654;23.316;2023-05-11T02:16:36;94783.56;;;10.41;57.42
29197;BME280;62796;42.654;23.316;2023-05-11T02:19:05;94777.44;;;10.37;57.29
29197;BME280;62796;42.654;23.316;2023-05-11T02:21:32;94784.59;;;10.44;56.89
29197;BME280;62796;42.654;23.316;2023-05-11T02:24:03;94774.09;;;10.48;56.97
29197;BME280;62796;42.654;23.316;2023-05-11T02:26:30;94768.25;;;10.46;57.09
29197;BME280;62796;42.654;23.316;2023-05-11T02:28:56;94768.06;;;10.49;57.05
29197;BME280;62796;42.654;23.316;2023-05-11T02:31:26;94769.53;;;10.45;56.80
29197;BME280;62796;42.654;23.316;2023-05-11T02:33:57;94769.41;;;10.39;56.73
29197;BME280;62796;42.654;23.316;2023-05-11T02:36:25;94767.31;;;10.34;56.84
29197;BME280;62796;42.654;23.316;2023-05-11T02:38:57;94776.03;;;10.27;57.25
29197;BME280;62796;42.654;23.316;2023-05-11T02:41:27;94769.63;;;10.36;57.00
29197;BME280;62796;42.654;23.316;2023-05-11T02:43:55;94774.56;;;10.32;56.95
29197;BME280;62796;42.654;23.316;2023-05-11T02:46:28;94773.03;;;10.31;57.05
29197;BME280;62796;42.654;23.316;2023-05-11T02:48:58;94784.69;;;10.35;56.96
29197;BME280;62796;42.654;23.316;2023-05-11T02:51:44;94766.84;;;10.21;57.19
29197;BME280;62796;42.654;23.316;2023-05-11T02:54:11;94765.59;;;10.22;57.12
29197;BME280;62796;42.654;23.316;2023-05-11T02:56:40;94771.13;;;10.22;57.26
29197;BME280;62796;42.654;23.316;2023-05-11T02:59:05;94764.63;;;10.11;57.39
29197;BME280;62796;42.654;23.316;2023-05-11T03:01:32;94775.88;;;10.07;57.71
29197;BME280;62796;42.654;23.316;2023-05-11T03:03:58;94774.38;;;10.06;57.28
29197;BME280;62796;42.654;23.316;2023-05-11T03:06:24;94760.03;;;10.08;57.55
29197;BME280;62796;42.654;23.316;2023-05-11T03:08:49;94765.56;;;10.08;57.85
29197;BME280;62796;42.654;23.316;2023-05-11T03:11:16;94764.53;;;10.05;57.89
29197;BME280;62796;42.654;23.316;2023-05-11T03:13:43;94772.81;;;10.05;57.80
29197;BME280;62796;42.654;23.316;2023-05-11T03:16:10;94770.72;;;10.00;57.79
29197;BME280;62796;42.654;23.316;2023-05-11T03:18:36;94764.97;;;9.89;57.98
29197;BME280;62796;42.654;23.316;2023-05-11T03:21:04;94763.38;;;9.97;58.31
29197;BME280;62796;42.654;23.316;2023-05-11T03:23:30;94767.66;;;9.98;58.24
29197;BME280;62796;42.654;23.316;2023-05-11T03:25:57;94771.88;;;9.93;58.31
29197;BME280;62796;42.654;23.316;2023-05-11T03:28:24;94775.84;;;9.92;58.14
29197;BME280;62796;42.654;23.316;2023-05-11T03:30:51;94772.03;;;9.90;58.42
29197;BME280;62796;42.654;23.316;2023-05-11T03:33:18;94776.44;;;9.96;58.57
29197;BME280;62796;42.654;23.316;2023-05-11T03:35:45;94771.28;;;9.89;58.59
29197;BME280;62796;42.654;23.316;2023-05-11T03:38:12;94775.59;;;9.90;58.63
29197;BME280;62796;42.654;23.316;2023-05-11T03:40:40;94777.50;;;9.99;58.62
29197;BME280;62796;42.654;23.316;2023-05-11T03:43:07;94772.25;;;10.01;58.01
29197;BME280;62796;42.654;23.316;2023-05-11T03:45:36;94773.50;;;10.00;58.06
29197;BME280;62796;42.654;23.316;2023-05-11T03:48:03;94776.25;;;10.00;58.00
29197;BME280;62796;42.654;23.316;2023-05-11T03:50:29;94782.53;;;10.00;58.01
29197;BME280;62796;42.654;23.316;2023-05-11T03:52:56;94792.66;;;10.03;57.97
29197;BME280;62796;42.654;23.316;2023-05-11T03:55:22;94786.06;;;10.01;58.46
29197;BME280;62796;42.654;23.316;2023-05-11T03:57:48;94787.44;;;10.06;58.20
29197;BME280;62796;42.654;23.316;2023-05-11T04:00:14;94787.88;;;10.04;58.14
29197;BME280;62796;42.654;23.316;2023-05-11T04:02:40;94784.16;;;10.07;58.35
29197;BME280;62796;42.654;23.316;2023-05-11T04:05:07;94794.59;;;10.12;58.16
29197;BME280;62796;42.654;23.316;2023-05-11T04:07:33;94791.72;;;10.07;58.35
29197;BME280;62796;42.654;23.316;2023-05-11T04:09:58;94790.38;;;10.02;58.18
29197;BME280;62796;42.654;23.316;2023-05-11T04:12:24;94803.94;;;10.00;58.10
29197;BME280;62796;42.654;23.316;2023-05-11T04:14:49;94797.63;;;9.99;58.34
29197;BME280;62796;42.654;23.316;2023-05-11T04:17:14;94803.06;;;9.94;58.81
29197;BME280;62796;42.654;23.316;2023-05-11T04:19:40;94798.94;;;9.89;58.78
29197;BME280;62796;42.654;23.316;2023-05-11T04:22:05;94800.31;;;9.94;58.93
29197;BME280;62796;42.654;23.316;2023-05-11T04:24:31;94805.84;;;9.94;58.84
29197;BME280;62796;42.654;23.316;2023-05-11T04:26:56;94812.69;;;9.84;59.35
29197;BME280;62796;42.654;23.316;2023-05-11T04:29:22;94799.13;;;9.86;59.38
29197;BME280;62796;42.654;23.316;2023-05-11T04:31:47;94809.56;;;9.91;59.69
29197;BME280;62796;42.654;23.316;2023-05-11T04:34:12;94807.34;;;9.95;59.55
29197;BME280;62796;42.654;23.316;2023-05-11T04:36:38;94783.19;;;9.81;59.26
29197;BME280;62796;42.654;23.316;2023-05-11T04:39:03;94805.84;;;9.94;59.45
29197;BME280;62796;42.654;23.316;2023-05-11T04:41:30;94812.13;;;9.94;59.57
29197;BME280;62796;42.654;23.316;2023-05-11T04:43:55;94821.00;;;9.98;59.38
29197;BME280;62796;42.654;23.316;2023-05-11T04:46:20;94828.53;;;9.98;59.34
29197;BME280;62796;42.654;23.316;2023-05-11T04:48:47;94832.72;;;9.93;59.69
29197;BME280;62796;42.654;23.316;2023-05-11T04:51:13;94835.97;;;9.92;59.69
29197;BME280;62796;42.654;23.316;2023-05-11T04:53:38;94833.69;;;9.90;60.00
29197;BME280;62796;42.654;23.316;2023-05-11T04:56:04;94829.28;;;9.84;60.36
29197;BME280;62796;42.654;23.316;2023-05-11T04:58:29;94834.44;;;9.91;60.18
29197;BME280;62796;42.654;23.316;2023-05-11T05:00:55;94829.03;;;9.96;60.10
29197;BME280;62796;42.654;23.316;2023-05-11T05:03:21;94825.75;;;9.98;60.11
29197;BME280;62796;42.654;23.316;2023-05-11T05:05:46;94849.16;;;9.97;60.34
29197;BME280;62796;42.654;23.316;2023-05-11T05:08:12;94845.22;;;9.89;60.76
29197;BME280;62796;42.654;23.316;2023-05-11T05:10:38;94835.97;;;9.92;60.65
29197;BME280;62796;42.654;23.316;2023-05-11T05:13:03;94840.53;;;9.95;60.77
29197;BME280;62796;42.654;23.316;2023-05-11T05:15:29;94858.69;;;9.96;60.39
29197;BME280;62796;42.654;23.316;2023-05-11T05:17:54;94849.91;;;9.97;60.97
29197;BME280;62796;42.654;23.316;2023-05-11T05:20:20;94850.91;;;10.09;60.60
29197;BME280;62796;42.654;23.316;2023-05-11T05:22:45;94856.19;;;9.98;60.68
29197;BME280;62796;42.654;23.316;2023-05-11T05:25:11;94849.72;;;10.01;60.65
29197;BME280;62796;42.654;23.316;2023-05-11T05:27:36;94854.69;;;9.97;60.66
29197;BME280;62796;42.654;23.316;2023-05-11T05:30:02;94853.16;;;9.96;61.09
29197;BME280;62796;42.654;23.316;2023-05-11T05:32:27;94843.91;;;9.99;61.14
29197;BME280;62796;42.654;23.316;2023-05-11T05:34:53;94860.03;;;10.00;61.35
29197;BME280;62796;42.654;23.316;2023-05-11T05:37:18;94840.00;;;10.06;60.83
29197;BME280;62796;42.654;23.316;2023-05-11T05:39:44;94874.41;;;10.14;60.92
29197;BME280;62796;42.654;23.316;2023-05-11T05:42:09;94849.59;;;10.19;60.65
29197;BME280;62796;42.654;23.316;2023-05-11T05:44:34;94857.03;;;10.28;60.25
29197;BME280;62796;42.654;23.316;2023-05-11T05:47:00;94854.41;;;10.33;59.64
29197;BME280;62796;42.654;23.316;2023-05-11T05:49:25;94851.63;;;10.33;59.61
29197;BME280;62796;42.654;23.316;2023-05-11T05:51:51;94851.91;;;10.35;59.60
29197;BME280;62796;42.654;23.316;2023-05-11T05:54:16;94859.53;;;10.40;59.69
29197;BME280;62796;42.654;23.316;2023-05-11T05:56:42;94865.94;;;10.46;59.20
29197;BME280;62796;42.654;23.316;2023-05-11T05:59:09;94868.53;;;10.50;59.27
29197;BME280;62796;42.654;23.316;2023-05-11T06:01:35;94869.47;;;10.47;58.43
29197;BME280;62796;42.654;23.316;2023-05-11T06:04:00;94869.84;;;10.54;58.62
29197;BME280;62796;42.654;23.316;2023-05-11T06:06:26;94866.03;;;10.52;58.92
29197;BME280;62796;42.654;23.316;2023-05-11T06:08:52;94868.91;;;10.57;58.53
29197;BME280;62796;42.654;23.316;2023-05-11T06:11:17;94865.47;;;10.63;58.19
29197;BME280;62796;42.654;23.316;2023-05-11T06:13:43;94868.81;;;10.67;57.90
29197;BME280;62796;42.654;23.316;2023-05-11T06:16:08;94876.38;;;10.66;57.97
29197;BME280;62796;42.654;23.316;2023-05-11T06:18:34;94882.09;;;10.63;57.99
29197;BME280;62796;42.654;23.316;2023-05-11T06:21:00;94882.19;;;10.53;58.01
29197;BME280;62796;42.654;23.316;2023-05-11T06:23:25;94877.59;;;10.36;58.40
29197;BME280;62796;42.654;23.316;2023-05-11T06:25:51;94898.03;;;10.38;58.37
29197;BME280;62796;42.654;23.316;2023-05-11T06:28:16;94881.09;;;10.36;59.26
29197;BME280;62796;42.654;23.316;2023-05-11T06:30:42;94891.06;;;10.43;58.96
29197;BME280;62796;42.654;23.316;2023-05-11T06:33:07;94885.91;;;10.50;59.30
29197;BME280;62796;42.654;23.316;2023-05-11T06:35:35;94878.66;;;10.53;58.36
29197;BME280;62796;42.654;23.316;2023-05-11T06:38:01;94897.19;;;10.62;58.29
29197;BME280;62796;42.654;23.316;2023-05-11T06:40:27;94889.25;;;10.54;58.61
29197;BME280;62796;42.654;23.316;2023-05-11T06:42:53;94898.31;;;10.55;58.67
29197;BME280;62796;42.654;23.316;2023-05-11T06:45:18;94895.84;;;10.57;58.51
29197;BME280;62796;42.654;23.316;2023-05-11T06:47:44;94905.41;;;10.56;58.54
29197;BME280;62796;42.654;23.316;2023-05-11T06:50:09;94888.19;;;10.52;58.55
29197;BME280;62796;42.654;23.316;2023-05-11T06:52:35;94890.09;;;10.61;58.15
29197;BME280;62796;42.654;23.316;2023-05-11T06:55:00;94894.69;;;10.64;58.57
29197;BME280;62796;42.654;23.316;2023-05-11T06:57:26;94882.75;;;10.72;58.26
29197;BME280;62796;42.654;23.316;2023-05-11T06:59:51;94875.78;;;10.77;58.12
29197;BME280;62796;42.654;23.316;2023-05-11T07:02:17;94891.19;;;10.78;58.19
29197;BME280;62796;42.654;23.316;2023-05-11T07:04:42;94883.22;;;10.85;58.13
29197;BME280;62796;42.654;23.316;2023-05-11T07:07:07;94883.03;;;10.89;57.78
29197;BME280;62796;42.654;23.316;2023-05-11T07:09:35;94899.94;;;11.05;57.30
29197;BME280;62796;42.654;23.316;2023-05-11T07:12:00;94896.41;;;11.20;56.70
29197;BME280;62796;42.654;23.316;2023-05-11T07:14:26;94908.03;;;11.24;56.69
29197;BME280;62796;42.654;23.316;2023-05-11T07:16:52;94886.69;;;11.30;56.09
29197;BME280;62796;42.654;23.316;2023-05-11T07:19:17;94892.31;;;11.35;55.87
29197;BME280;62796;42.654;23.316;2023-05-11T07:21:43;94893.47;;;11.43;55.74
29197;BME280;62796;42.654;23.316;2023-05-11T07:24:09;94889.63;;;11.55;55.80
29197;BME280;62796;42.654;23.316;2023-05-11T07:26:34;94892.66;;;11.57;55.03
29197;BME280;62796;42.654;23.316;2023-05-11T07:28:59;94890.91;;;11.60;54.70
29197;BME280;62796;42.654;23.316;2023-05-11T07:31:25;94908.25;;;11.70;54.76
29197;BME280;62796;42.654;23.316;2023-05-11T07:33:51;94902.00;;;11.75;54.64
29197;BME280;62796;42.654;23.316;2023-05-11T07:36:17;94900.63;;;11.85;54.07
29197;BME280;62796;42.654;23.316;2023-05-11T07:38:42;94900.56;;;11.99;54.56
29197;BME280;62796;42.654;23.316;2023-05-11T07:41:08;94891.31;;;12.08;53.34
29197;BME280;62796;42.654;23.316;2023-05-11T07:43:33;94894.38;;;12.10;53.38
29197;BME280;62796;42.654;23.316;2023-05-11T07:45:59;94906.16;;;12.25;52.82
29197;BME280;62796;42.654;23.316;2023-05-11T07:48:24;94890.63;;;12.33;52.60
29197;BME280;62796;42.654;23.316;2023-05-11T07:50:50;94904.63;;;12.44;52.24
29197;BME280;62796;42.654;23.316;2023-05-11T07:53:15;94897.72;;;12.40;51.90
29197;BME280;62796;42.654;23.316;2023-05-11T07:55:41;94918.44;;;12.39;52.04
29197;BME280;62796;42.654;23.316;2023-05-11T07:58:06;94895.31;;;12.47;51.91
29197;BME280;62796;42.654;23.316;2023-05-11T08:00:32;94903.22;;;12.34;51.35
29197;BME280;62796;42.654;23.316;2023-05-11T08:02:58;94899.97;;;12.36;51.04
29197;BME280;62796;42.654;23.316;2023-05-11T08:05:23;94893.66;;;12.35;50.69
29197;BME280;62796;42.654;23.316;2023-05-11T08:07:49;94901.13;;;12.49;50.46
29197;BME280;62796;42.654;23.316;2023-05-11T08:10:14;94894.44;;;12.61;50.56
29197;BME280;62796;42.654;23.316;2023-05-11T08:12:40;94895.31;;;12.73;49.80
29197;BME280;62796;42.654;23.316;2023-05-11T08:15:05;94899.75;;;12.91;49.04
29197;BME280;62796;42.654;23.316;2023-05-11T08:17:32;94893.03;;;13.03;48.78
29197;BME280;62796;42.654;23.316;2023-05-11T08:19:58;94900.97;;;13.10;48.55
29197;BME280;62796;42.654;23.316;2023-05-11T08:22:23;94899.78;;;13.16;48.45
29197;BME280;62796;42.654;23.316;2023-05-11T08:24:49;94905.13;;;13.20;47.72
29197;BME280;62796;42.654;23.316;2023-05-11T08:27:17;94902.69;;;13.33;47.58
29197;BME280;62796;42.654;23.316;2023-05-11T08:29:43;94881.41;;;13.30;47.55
29197;BME280;62796;42.654;23.316;2023-05-11T08:32:08;94897.38;;;13.35;47.93
29197;BME280;62796;42.654;23.316;2023-05-11T08:34:34;94900.09;;;13.61;47.26
29197;BME280;62796;42.654;23.316;2023-05-11T08:36:59;94908.97;;;13.65;46.33
29197;BME280;62796;42.654;23.316;2023-05-11T08:39:26;94903.97;;;13.74;46.55
29197;BME280;62796;42.654;23.316;2023-05-11T08:41:52;94903.28;;;13.85;45.95
29197;BME280;62796;42.654;23.316;2023-05-11T08:44:19;94904.56;;;13.90;45.50
29197;BME280;62796;42.654;23.316;2023-05-11T08:46:47;94896.41;;;13.80;46.35
29197;BME280;62796;42.654;23.316;2023-05-11T08:49:17;94909.88;;;13.88;45.82
29197;BME280;62796;42.654;23.316;2023-05-11T08:51:44;94888.38;;;13.94;46.06
29197;BME280;62796;42.654;23.316;2023-05-11T08:54:09;94903.59;;;14.04;45.89
29197;BME280;62796;42.654;23.316;2023-05-11T08:56:35;94893.53;;;14.12;45.32
29197;BME280;62796;42.654;23.316;2023-05-11T08:59:03;94896.56;;;14.14;45.37
29197;BME280;62796;42.654;23.316;2023-05-11T09:01:29;94898.34;;;14.11;45.46
29197;BME280;62796;42.654;23.316;2023-05-11T09:03:56;94896.53;;;14.03;45.61
29197;BME280;62796;42.654;23.316;2023-05-11T09:06:23;94895.00;;;14.02;46.05
29197;BME280;62796;42.654;23.316;2023-05-11T09:08:49;94890.47;;;14.10;45.87
29197;BME280;62796;42.654;23.316;2023-05-11T09:11:14;94892.56;;;14.20;45.73
29197;BME280;62796;42.654;23.316;2023-05-11T09:13:40;94883.22;;;14.29;45.98
29197;BME280;62796;42.654;23.316;2023-05-11T09:16:05;94892.41;;;14.46;45.35
29197;BME280;62796;42.654;23.316;2023-05-11T09:18:31;94898.00;;;14.52;44.66
29197;BME280;62796;42.654;23.316;2023-05-11T09:20:56;94887.09;;;14.48;45.00
29197;BME280;62796;42.654;23.316;2023-05-11T09:23:25;94892.22;;;14.66;45.08
29197;BME280;62796;42.654;23.316;2023-05-11T09:25:51;94892.47;;;14.68;45.00
29197;BME280;62796;42.654;23.316;2023-05-11T09:28:23;94890.16;;;14.61;44.74
29197;BME280;62796;42.654;23.316;2023-05-11T09:30:49;94888.63;;;14.49;44.94
29197;BME280;62796;42.654;23.316;2023-05-11T09:33:24;94893.63;;;14.34;45.55
29197;BME280;62796;42.654;23.316;2023-05-11T09:35:50;94893.19;;;14.52;45.57
29197;BME280;62796;42.654;23.316;2023-05-11T09:38:16;94900.78;;;14.52;45.97
29197;BME280;62796;42.654;23.316;2023-05-11T09:40:54;94898.50;;;14.45;46.09
29197;BME280;62796;42.654;23.316;2023-05-11T09:43:27;94894.19;;;14.49;46.43
29197;BME280;62796;42.654;23.316;2023-05-11T09:45:57;94897.25;;;14.51;46.09
29197;BME280;62796;42.654;23.316;2023-05-11T09:48:30;94889.66;;;14.57;46.40
29197;BME280;62796;42.654;23.316;2023-05-11T09:51:04;94886.34;;;14.42;46.34
29197;BME280;62796;42.654;23.316;2023-05-11T09:56:03;94879.94;;;14.30;46.78
29197;BME280;62796;42.654;23.316;2023-05-11T09:58:55;94887.06;;;14.37;47.12
29197;BME280;62796;42.654;23.316;2023-05-11T10:01:32;94877.09;;;14.25;46.83
29197;BME280;62796;42.654;23.316;2023-05-11T10:03:59;94879.59;;;14.12;47.65
29197;BME280;62796;42.654;23.316;2023-05-11T10:06:25;94876.84;;;14.23;47.59
29197;BME280;62796;42.654;23.316;2023-05-11T10:08:53;94873.53;;;14.19;47.51
29197;BME280;62796;42.654;23.316;2023-05-11T10:11:21;94869.50;;;14.20;47.68
29197;BME280;62796;42.654;23.316;2023-05-11T10:13:47;94867.72;;;14.17;47.43
29197;BME280;62796;42.654;23.316;2023-05-11T10:16:14;94860.34;;;14.08;47.60
29197;BME280;62796;42.654;23.316;2023-05-11T10:18:41;94859.09;;;14.15;47.49
29197;BME280;62796;42.654;23.316;2023-05-11T10:21:09;94859.81;;;14.10;48.04
29197;BME280;62796;42.654;23.316;2023-05-11T10:23:35;94863.69;;;14.18;47.04
29197;BME280;62796;42.654;23.316;2023-05-11T10:26:03;94868.00;;;14.24;47.65
29197;BME280;62796;42.654;23.316;2023-05-11T10:28:29;94856.91;;;14.35;47.24
29197;BME280;62796;42.654;23.316;2023-05-11T10:30:55;94858.13;;;14.29;47.31
29197;BME280;62796;42.654;23.316;2023-05-11T10:33:22;94857.69;;;14.42;46.93
29197;BME280;62796;42.654;23.316;2023-05-11T10:35:47;94861.03;;;14.68;46.89
29197;BME280;62796;42.654;23.316;2023-05-11T10:38:13;94824.81;;;14.73;45.69
29197;BME280;62796;42.654;23.316;2023-05-11T10:40:42;94840.28;;;14.91;45.47
29197;BME280;62796;42.654;23.316;2023-05-11T10:54:54;94838.97;;;15.53;44.03
29197;BME280;62796;42.654;23.316;2023-05-11T10:57:35;94856.25;;;15.57;43.96
29197;BME280;62796;42.654;23.316;2023-05-11T11:03:12;94835.47;;;15.25;44.54
29197;BME280;62796;42.654;23.316;2023-05-11T11:05:38;94835.69;;;15.32;44.08
29197;BME280;62796;42.654;23.316;2023-05-11T11:08:05;94842.03;;;15.33;44.30
29197;BME280;62796;42.654;23.316;2023-05-11T11:10:33;94840.25;;;15.35;44.26
29197;BME280;62796;42.654;23.316;2023-05-11T11:13:06;94832.63;;;15.41;44.36
29197;BME280;62796;42.654;23.316;2023-05-11T11:18:24;94845.31;;;15.42;43.97
29197;BME280;62796;42.654;23.316;2023-05-11T11:20:51;94838.97;;;15.42;43.64
29197;BME280;62796;42.654;23.316;2023-05-11T11:23:40;94832.41;;;15.34;43.97
29197;BME280;62796;42.654;23.316;2023-05-11T11:26:07;94848.66;;;15.19;44.73
29197;BME280;62796;42.654;23.316;2023-05-11T11:31:29;94832.16;;;15.21;44.94
29197;BME280;62796;42.654;23.316;2023-05-11T11:33:56;94834.94;;;15.26;44.53
29197;BME280;62796;42.654;23.316;2023-05-11T11:39:46;94822.00;;;15.23;44.24
29197;BME280;62796;42.654;23.316;2023-05-11T11:42:30;94814.16;;;15.22;44.84
29197;BME280;62796;42.654;23.316;2023-05-11T11:45:27;94834.19;;;15.26;44.66
29197;BME280;62796;42.654;23.316;2023-05-11T11:48:11;94820.00;;;15.13;45.14
29197;BME280;62796;42.654;23.316;2023-05-11T11:50:44;94828.84;;;15.06;44.78
29197;BME280;62796;42.654;23.316;2023-05-11T11:53:57;94821.25;;;15.12;44.89
29197;BME280;62796;42.654;23.316;2023-05-11T11:55:57;94822.78;;;15.07;45.11
29197;BME280;62796;42.654;23.316;2023-05-11T12:01:17;94820.75;;;15.08;44.98
29197;BME280;62796;42.654;23.316;2023-05-11T12:03:46;94832.41;;;15.01;45.42
29197;BME280;62796;42.654;23.316;2023-05-11T12:06:12;94838.00;;;14.89;45.75
29197;BME280;62796;42.654;23.316;2023-05-11T12:08:39;94833.44;;;14.86;45.57
29197;BME280;62796;42.654;23.316;2023-05-11T12:11:05;94818.22;;;14.76;45.57
29197;BME280;62796;42.654;23.316;2023-05-11T12:13:32;94825.81;;;14.70;46.51
29197;BME280;62796;42.654;23.316;2023-05-11T12:16:15;94826.81;;;14.78;46.21
29197;BME280;62796;42.654;23.316;2023-05-11T12:18:50;94809.09;;;14.81;45.91
29197;BME280;62796;42.654;23.316;2023-05-11T12:21:27;94813.16;;;14.80;46.16
29197;BME280;62796;42.654;23.316;2023-05-11T12:23:59;94817.97;;;14.69;46.52
29197;BME280;62796;42.654;23.316;2023-05-11T12:26:27;94801.97;;;14.58;46.25
29197;BME280;62796;42.654;23.316;2023-05-11T12:29:08;94813.38;;;14.49;47.33
29197;BME280;62796;42.654;23.316;2023-05-11T12:31:39;94804.22;;;14.37;47.18
29197;BME280;62796;42.654;23.316;2023-05-11T12:34:05;94789.50;;;14.31;47.20
29197;BME280;62796;42.654;23.316;2023-05-11T12:36:30;94810.09;;;14.45;47.15
29197;BME280;62796;42.654;23.316;2023-05-11T12:38:58;94807.03;;;14.43;47.32
29197;BME280;62796;42.654;23.316;2023-05-11T12:41:23;94800.88;;;14.28;47.66
29197;BME280;62796;42.654;23.316;2023-05-11T12:43:49;94796.03;;;14.12;47.92
29197;BME280;62796;42.654;23.316;2023-05-11T12:46:16;94785.91;;;14.14;47.59
29197;BME280;62796;42.654;23.316;2023-05-11T12:48:47;94792.19;;;14.04;48.22
29197;BME280;62796;42.654;23.316;2023-05-11T12:51:46;94789.16;;;14.02;48.57
29197;BME280;62796;42.654;23.316;2023-05-11T12:54:45;94779.28;;;13.95;48.72
29197;BME280;62796;42.654;23.316;2023-05-11T12:57:32;94781.34;;;14.00;48.08
29197;BME280;62796;42.654;23.316;2023-05-11T13:00:13;94774.97;;;13.89;48.30
29197;BME280;62796;42.654;23.316;2023-05-11T13:02:53;94768.09;;;13.78;48.76
29197;BME280;62796;42.654;23.316;2023-05-11T13:05:26;94772.41;;;13.79;48.98
29197;BME280;62796;42.654;23.316;2023-05-11T13:07:59;94759.25;;;13.85;49.26
29197;BME280;62796;42.654;23.316;2023-05-11T13:10:26;94756.50;;;13.97;48.58
29197;BME280;62796;42.654;23.316;2023-05-11T13:12:51;94762.53;;;13.84;48.87
29197;BME280;62796;42.654;23.316;2023-05-11T13:15:18;94761.03;;;13.89;48.89
29197;BME280;62796;42.654;23.316;2023-05-11T13:17:44;94761.28;;;13.91;48.50
29197;BME280;62796;42.654;23.316;2023-05-11T13:22:45;94765.34;;;13.90;48.79
29197;BME280;62796;42.654;23.316;2023-05-11T13:25:13;94765.09;;;13.88;48.90
29197;BME280;62796;42.654;23.316;2023-05-11T13:27:38;94752.69;;;13.89;48.60
29197;BME280;62796;42.654;23.316;2023-05-11T13:30:05;94752.16;;;13.84;48.93
29197;BME280;62796;42.654;23.316;2023-05-11T13:32:30;94766.84;;;13.85;48.96
29197;BME280;62796;42.654;23.316;2023-05-11T13:34:56;94770.09;;;13.72;49.67
29197;BME280;62796;42.654;23.316;2023-05-11T13:37:21;94758.63;;;13.59;49.64